sensor_id;sensor_type;location;lat;lon;timestamp;P1;durP1;ratioP1;P2;durP2;ratioP2
32633;SDS011;19043;51.012;5.648;2023-04-03T00:00:27;9.38;;;5.20;;
32633;SDS011;19043;51.012;5.648;2023-04-03T00:02:53;7.93;;;5.32;;
32633;SDS011;19043;51.012;5.648;2023-04-03T00:05:18;9.75;;;5.72;;
32633;SDS011;19043;51.012;5.648;2023-04-03T00:07:43;7.13;;;4.90;;
32633;SDS011;19043;51.012;5.648;2023-04-03T00:10:09;7.95;;;4.78;;
32633;SDS011;19043;51.012;5.648;2023-04-03T00:12:34;9.38;;;5.60;;
32633;SDS011;19043;51.012;5.648;2023-04-03T00:14:59;10.07;;;5.78;;
32633;SDS011;19043;51.012;5.648;2023-04-03T00:17:25;11.20;;;6.10;;
32633;SDS011;19043;51.012;5.648;2023-04-03T00:19:50;8.15;;;5.07;;
32633;SDS011;19043;51.012;5.648;2023-04-03T00:22:15;11.98;;;5.60;;
32633;SDS011;19043;51.012;5.648;2023-04-03T00:24:41;9.57;;;6.00;;
32633;SDS011;19043;51.012;5.648;2023-04-03T00:27:06;8.27;;;5.20;;
32633;SDS011;19043;51.012;5.648;2023-04-03T00:29:32;9.55;;;5.60;;
32633;SDS011;19043;51.012;5.648;2023-04-03T00:31:57;9.73;;;5.32;;
32633;SDS011;19043;51.012;5.648;2023-04-03T00:34:22;9.82;;;5.97;;
32633;SDS011;19043;51.012;5.648;2023-04-03T00:36:47;8.90;;;5.90;;
32633;SDS011;19043;51.012;5.648;2023-04-03T00:39:13;7.97;;;5.32;;
32633;SDS011;19043;51.012;5.648;2023-04-03T00:41:38;9.82;;;5.72;;
32633;SDS011;19043;51.012;5.648;2023-04-03T00:44:19;9.93;;;6.05;;
32633;SDS011;19043;51.012;5.648;2023-04-03T00:46:45;8.98;;;6.30;;
32633;SDS011;19043;51.012;5.648;2023-04-03T00:49:10;8.95;;;6.18;;
32633;SDS011;19043;51.012;5.648;2023-04-03T00:51:35;11.00;;;6.45;;
32633;SDS011;19043;51.012;5.648;2023-04-03T00:54:01;8.80;;;6.30;;
32633;SDS011;19043;51.012;5.648;2023-04-03T00:56:27;8.45;;;5.97;;
32633;SDS011;19043;51.012;5.648;2023-04-03T00:58:56;10.27;;;6.80;;
32633;SDS011;19043;51.012;5.648;2023-04-03T01:01:23;8.55;;;5.95;;
32633;SDS011;19043;51.012;5.648;2023-04-03T01:03:49;7.97;;;6.00;;
32633;SDS011;19043;51.012;5.648;2023-04-03T01:06:16;7.85;;;5.85;;
32633;SDS011;19043;51.012;5.648;2023-04-03T01:08:41;12.85;;;5.45;;
32633;SDS011;19043;51.012;5.648;2023-04-03T01:11:07;7.68;;;5.57;;
32633;SDS011;19043;51.012;5.648;2023-04-03T01:13:32;12.35;;;5.78;;
32633;SDS011;19043;51.012;5.648;2023-04-03T01:16:03;7.90;;;6.03;;
32633;SDS011;19043;51.012;5.648;2023-04-03T01:18:28;10.02;;;6.75;;
32633;SDS011;19043;51.012;5.648;2023-04-03T01:23:35;8.90;;;6.10;;
32633;SDS011;19043;51.012;5.648;2023-04-03T01:26:04;14.90;;;7.15;;
32633;SDS011;19043;51.012;5.648;2023-04-03T01:28:31;8.60;;;5.88;;
32633;SDS011;19043;51.012;5.648;2023-04-03T01:33:25;11.30;;;6.95;;
32633;SDS011;19043;51.012;5.648;2023-04-03T01:35:50;12.25;;;6.80;;
32633;SDS011;19043;51.012;5.648;2023-04-03T01:38:15;9.02;;;6.03;;
32633;SDS011;19043;51.012;5.648;2023-04-03T01:40:41;10.63;;;6.15;;
32633;SDS011;19043;51.012;5.648;2023-04-03T01:43:06;11.25;;;6.50;;
32633;SDS011;19043;51.012;5.648;2023-04-03T01:45:31;11.50;;;7.25;;
32633;SDS011;19043;51.012;5.648;2023-04-03T01:47:57;11.13;;;6.13;;
32633;SDS011;19043;51.012;5.648;2023-04-03T01:50:22;12.40;;;7.28;;
32633;SDS011;19043;51.012;5.648;2023-04-03T01:52:47;15.15;;;7.63;;
32633;SDS011;19043;51.012;5.648;2023-04-03T01:55:13;16.15;;;7.05;;
32633;SDS011;19043;51.012;5.648;2023-04-03T01:57:38;9.55;;;6.22;;
32633;SDS011;19043;51.012;5.648;2023-04-03T02:00:03;18.00;;;7.65;;
32633;SDS011;19043;51.012;5.648;2023-04-03T02:02:29;12.60;;;7.65;;
32633;SDS011;19043;51.012;5.648;2023-04-03T02:04:54;10.45;;;7.22;;
32633;SDS011;19043;51.012;5.648;2023-04-03T02:07:19;11.43;;;6.65;;
32633;SDS011;19043;51.012;5.648;2023-04-03T02:09:45;9.52;;;7.60;;
32633;SDS011;19043;51.012;5.648;2023-04-03T02:12:10;9.30;;;7.50;;
32633;SDS011;19043;51.012;5.648;2023-04-03T02:14:35;8.07;;;6.63;;
32633;SDS011;19043;51.012;5.648;2023-04-03T02:17:01;10.40;;;7.47;;
32633;SDS011;19043;51.012;5.648;2023-04-03T02:19:30;9.43;;;6.82;;
32633;SDS011;19043;51.012;5.648;2023-04-03T02:21:55;9.57;;;7.40;;
32633;SDS011;19043;51.012;5.648;2023-04-03T02:24:20;10.27;;;7.28;;
32633;SDS011;19043;51.012;5.648;2023-04-03T02:26:45;13.52;;;8.38;;
32633;SDS011;19043;51.012;5.648;2023-04-03T02:29:11;11.10;;;7.90;;
32633;SDS011;19043;51.012;5.648;2023-04-03T02:31:36;10.20;;;7.57;;
32633;SDS011;19043;51.012;5.648;2023-04-03T02:34:01;13.02;;;7.75;;
32633;SDS011;19043;51.012;5.648;2023-04-03T02:36:26;11.95;;;7.53;;
32633;SDS011;19043;51.012;5.648;2023-04-03T02:38:52;14.98;;;7.95;;
32633;SDS011;19043;51.012;5.648;2023-04-03T02:41:17;11.35;;;8.43;;
32633;SDS011;19043;51.012;5.648;2023-04-03T02:43:42;12.48;;;8.00;;
32633;SDS011;19043;51.012;5.648;2023-04-03T02:46:07;11.43;;;7.68;;
32633;SDS011;19043;51.012;5.648;2023-04-03T02:48:33;13.68;;;8.55;;
32633;SDS011;19043;51.012;5.648;2023-04-03T02:50:58;12.13;;;8.25;;
32633;SDS011;19043;51.012;5.648;2023-04-03T02:53:23;12.05;;;7.28;;
32633;SDS011;19043;51.012;5.648;2023-04-03T02:55:49;13.15;;;9.45;;
32633;SDS011;19043;51.012;5.648;2023-04-03T02:58:14;12.43;;;8.65;;
32633;SDS011;19043;51.012;5.648;2023-04-03T03:00:40;15.80;;;8.20;;
32633;SDS011;19043;51.012;5.648;2023-04-03T03:03:05;13.77;;;9.13;;
32633;SDS011;19043;51.012;5.648;2023-04-03T03:05:30;13.45;;;8.48;;
32633;SDS011;19043;51.012;5.648;2023-04-03T03:07:56;15.95;;;8.48;;
32633;SDS011;19043;51.012;5.648;2023-04-03T03:10:21;10.95;;;7.63;;
32633;SDS011;19043;51.012;5.648;2023-04-03T03:12:47;13.18;;;7.82;;
32633;SDS011;19043;51.012;5.648;2023-04-03T03:15:12;11.63;;;8.35;;
32633;SDS011;19043;51.012;5.648;2023-04-03T03:17:37;11.95;;;8.45;;
32633;SDS011;19043;51.012;5.648;2023-04-03T03:20:06;8.98;;;7.43;;
32633;SDS011;19043;51.012;5.648;2023-04-03T03:22:31;11.88;;;7.60;;
32633;SDS011;19043;51.012;5.648;2023-04-03T03:24:57;11.82;;;7.88;;
32633;SDS011;19043;51.012;5.648;2023-04-03T03:27:22;10.68;;;8.20;;
32633;SDS011;19043;51.012;5.648;2023-04-03T03:29:48;11.63;;;8.13;;
32633;SDS011;19043;51.012;5.648;2023-04-03T03:32:14;15.13;;;9.25;;
32633;SDS011;19043;51.012;5.648;2023-04-03T03:34:39;10.90;;;8.50;;
32633;SDS011;19043;51.012;5.648;2023-04-03T03:37:04;12.13;;;8.27;;
32633;SDS011;19043;51.012;5.648;2023-04-03T03:39:30;18.35;;;9.02;;
32633;SDS011;19043;51.012;5.648;2023-04-03T03:41:55;16.48;;;9.60;;
32633;SDS011;19043;51.012;5.648;2023-04-03T03:44:20;22.00;;;13.98;;
32633;SDS011;19043;51.012;5.648;2023-04-03T03:46:46;29.52;;;22.23;;
32633;SDS011;19043;51.012;5.648;2023-04-03T03:49:11;23.10;;;17.48;;
32633;SDS011;19043;51.012;5.648;2023-04-03T03:51:37;22.15;;;15.88;;
32633;SDS011;19043;51.012;5.648;2023-04-03T03:54:03;22.48;;;14.77;;
32633;SDS011;19043;51.012;5.648;2023-04-03T03:56:28;19.25;;;14.50;;
32633;SDS011;19043;51.012;5.648;2023-04-03T03:58:53;17.23;;;13.65;;
32633;SDS011;19043;51.012;5.648;2023-04-03T04:01:21;17.33;;;12.95;;
32633;SDS011;19043;51.012;5.648;2023-04-03T04:03:47;18.48;;;12.32;;
32633;SDS011;19043;51.012;5.648;2023-04-03T04:06:12;15.38;;;11.82;;
32633;SDS011;19043;51.012;5.648;2023-04-03T04:08:37;16.45;;;12.60;;
32633;SDS011;19043;51.012;5.648;2023-04-03T04:11:02;18.50;;;12.38;;
32633;SDS011;19043;51.012;5.648;2023-04-03T04:13:28;16.27;;;11.98;;
32633;SDS011;19043;51.012;5.648;2023-04-03T04:15:53;17.20;;;11.25;;
32633;SDS011;19043;51.012;5.648;2023-04-03T04:18:18;15.85;;;11.30;;
32633;SDS011;19043;51.012;5.648;2023-04-03T04:20:45;20.25;;;12.30;;
32633;SDS011;19043;51.012;5.648;2023-04-03T04:23:10;18.33;;;12.35;;
32633;SDS011;19043;51.012;5.648;2023-04-03T04:25:36;16.55;;;12.18;;
32633;SDS011;19043;51.012;5.648;2023-04-03T04:28:01;18.88;;;12.48;;
32633;SDS011;19043;51.012;5.648;2023-04-03T04:30:26;17.80;;;12.07;;
32633;SDS011;19043;51.012;5.648;2023-04-03T04:32:52;16.92;;;12.30;;
32633;SDS011;19043;51.012;5.648;2023-04-03T04:35:17;17.02;;;11.80;;
32633;SDS011;19043;51.012;5.648;2023-04-03T04:37:43;16.13;;;11.10;;
32633;SDS011;19043;51.012;5.648;2023-04-03T04:40:08;19.80;;;12.55;;
32633;SDS011;19043;51.012;5.648;2023-04-03T04:42:34;16.88;;;12.07;;
32633;SDS011;19043;51.012;5.648;2023-04-03T04:44:59;16.33;;;12.07;;
32633;SDS011;19043;51.012;5.648;2023-04-03T04:47:25;18.52;;;12.00;;
32633;SDS011;19043;51.012;5.648;2023-04-03T04:49:50;14.18;;;10.52;;
32633;SDS011;19043;51.012;5.648;2023-04-03T04:52:15;18.27;;;12.23;;
32633;SDS011;19043;51.012;5.648;2023-04-03T04:54:41;13.98;;;10.00;;
32633;SDS011;19043;51.012;5.648;2023-04-03T04:57:06;20.23;;;11.43;;
32633;SDS011;19043;51.012;5.648;2023-04-03T04:59:32;16.33;;;11.05;;
32633;SDS011;19043;51.012;5.648;2023-04-03T05:01:57;16.05;;;11.55;;
32633;SDS011;19043;51.012;5.648;2023-04-03T05:04:23;14.93;;;10.80;;
32633;SDS011;19043;51.012;5.648;2023-04-03T05:06:48;16.25;;;11.05;;
32633;SDS011;19043;51.012;5.648;2023-04-03T05:09:13;20.60;;;11.40;;
32633;SDS011;19043;51.012;5.648;2023-04-03T05:11:39;16.48;;;11.98;;
32633;SDS011;19043;51.012;5.648;2023-04-03T05:14:04;16.60;;;11.10;;
32633;SDS011;19043;51.012;5.648;2023-04-03T05:16:33;21.98;;;11.52;;
32633;SDS011;19043;51.012;5.648;2023-04-03T05:18:58;17.05;;;10.75;;
32633;SDS011;19043;51.012;5.648;2023-04-03T05:21:23;13.85;;;10.38;;
32633;SDS011;19043;51.012;5.648;2023-04-03T05:23:51;17.10;;;10.80;;
32633;SDS011;19043;51.012;5.648;2023-04-03T05:26:16;13.80;;;10.02;;
32633;SDS011;19043;51.012;5.648;2023-04-03T05:28:41;15.75;;;10.40;;
32633;SDS011;19043;51.012;5.648;2023-04-03T05:31:06;11.93;;;10.23;;
32633;SDS011;19043;51.012;5.648;2023-04-03T05:33:32;17.77;;;10.20;;
32633;SDS011;19043;51.012;5.648;2023-04-03T05:35:57;15.88;;;10.13;;
32633;SDS011;19043;51.012;5.648;2023-04-03T05:38:26;15.15;;;10.23;;
32633;SDS011;19043;51.012;5.648;2023-04-03T05:40:51;14.25;;;9.13;;
32633;SDS011;19043;51.012;5.648;2023-04-03T05:43:17;11.77;;;8.88;;
32633;SDS011;19043;51.012;5.648;2023-04-03T05:45:42;14.18;;;9.43;;
32633;SDS011;19043;51.012;5.648;2023-04-03T05:48:08;15.63;;;9.43;;
32633;SDS011;19043;51.012;5.648;2023-04-03T05:50:33;16.98;;;8.95;;
32633;SDS011;19043;51.012;5.648;2023-04-03T05:52:58;12.70;;;8.32;;
32633;SDS011;19043;51.012;5.648;2023-04-03T05:55:24;14.45;;;8.65;;
32633;SDS011;19043;51.012;5.648;2023-04-03T05:57:49;13.05;;;7.80;;
32633;SDS011;19043;51.012;5.648;2023-04-03T06:00:15;8.60;;;6.82;;
32633;SDS011;19043;51.012;5.648;2023-04-03T06:02:40;13.57;;;7.57;;
32633;SDS011;19043;51.012;5.648;2023-04-03T06:05:06;12.85;;;7.65;;
32633;SDS011;19043;51.012;5.648;2023-04-03T06:07:33;15.73;;;8.45;;
32633;SDS011;19043;51.012;5.648;2023-04-03T06:09:59;8.95;;;6.90;;
32633;SDS011;19043;51.012;5.648;2023-04-03T06:12:25;12.15;;;6.43;;
32633;SDS011;19043;51.012;5.648;2023-04-03T06:14:50;9.70;;;7.05;;
32633;SDS011;19043;51.012;5.648;2023-04-03T06:17:16;10.65;;;7.13;;
32633;SDS011;19043;51.012;5.648;2023-04-03T06:19:42;10.75;;;5.95;;
32633;SDS011;19043;51.012;5.648;2023-04-03T06:22:08;8.55;;;6.15;;
32633;SDS011;19043;51.012;5.648;2023-04-03T06:24:33;18.30;;;7.20;;
32633;SDS011;19043;51.012;5.648;2023-04-03T06:26:58;10.48;;;6.20;;
32633;SDS011;19043;51.012;5.648;2023-04-03T06:29:24;14.80;;;5.88;;
32633;SDS011;19043;51.012;5.648;2023-04-03T06:31:49;13.45;;;6.07;;
32633;SDS011;19043;51.012;5.648;2023-04-03T06:34:15;14.95;;;5.90;;
32633;SDS011;19043;51.012;5.648;2023-04-03T06:36:41;11.07;;;6.18;;
32633;SDS011;19043;51.012;5.648;2023-04-03T06:39:08;12.63;;;6.43;;
32633;SDS011;19043;51.012;5.648;2023-04-03T06:41:34;11.85;;;6.47;;
32633;SDS011;19043;51.012;5.648;2023-04-03T06:43:59;10.52;;;5.90;;
32633;SDS011;19043;51.012;5.648;2023-04-03T06:46:25;13.73;;;7.00;;
32633;SDS011;19043;51.012;5.648;2023-04-03T06:48:51;7.93;;;6.20;;
32633;SDS011;19043;51.012;5.648;2023-04-03T06:51:27;9.95;;;6.18;;
32633;SDS011;19043;51.012;5.648;2023-04-03T06:53:53;12.20;;;6.40;;
32633;SDS011;19043;51.012;5.648;2023-04-03T06:56:19;10.73;;;6.20;;
32633;SDS011;19043;51.012;5.648;2023-04-03T06:58:44;8.65;;;6.22;;
32633;SDS011;19043;51.012;5.648;2023-04-03T07:01:11;8.40;;;5.68;;
32633;SDS011;19043;51.012;5.648;2023-04-03T07:03:37;10.23;;;5.78;;
32633;SDS011;19043;51.012;5.648;2023-04-03T07:06:03;9.30;;;5.80;;
32633;SDS011;19043;51.012;5.648;2023-04-03T07:08:29;13.00;;;6.55;;
32633;SDS011;19043;51.012;5.648;2023-04-03T07:10:54;10.52;;;5.07;;
32633;SDS011;19043;51.012;5.648;2023-04-03T07:13:20;8.75;;;5.18;;
32633;SDS011;19043;51.012;5.648;2023-04-03T07:15:45;8.73;;;5.15;;
32633;SDS011;19043;51.012;5.648;2023-04-03T07:18:11;12.48;;;5.18;;
32633;SDS011;19043;51.012;5.648;2023-04-03T07:20:36;10.13;;;5.60;;
32633;SDS011;19043;51.012;5.648;2023-04-03T07:23:01;12.75;;;4.90;;
32633;SDS011;19043;51.012;5.648;2023-04-03T07:25:27;7.97;;;5.07;;
32633;SDS011;19043;51.012;5.648;2023-04-03T07:27:52;8.68;;;4.90;;
32633;SDS011;19043;51.012;5.648;2023-04-03T07:30:19;12.73;;;5.07;;
32633;SDS011;19043;51.012;5.648;2023-04-03T07:32:44;8.68;;;4.72;;
32633;SDS011;19043;51.012;5.648;2023-04-03T07:35:10;10.48;;;4.70;;
32633;SDS011;19043;51.012;5.648;2023-04-03T07:37:35;8.95;;;4.50;;
32633;SDS011;19043;51.012;5.648;2023-04-03T07:40:03;11.75;;;4.50;;
32633;SDS011;19043;51.012;5.648;2023-04-03T07:42:29;8.07;;;4.60;;
32633;SDS011;19043;51.012;5.648;2023-04-03T07:44:54;9.85;;;4.50;;
32633;SDS011;19043;51.012;5.648;2023-04-03T07:47:20;8.75;;;4.72;;
32633;SDS011;19043;51.012;5.648;2023-04-03T07:49:46;7.22;;;4.63;;
32633;SDS011;19043;51.012;5.648;2023-04-03T07:52:12;13.88;;;4.25;;
32633;SDS011;19043;51.012;5.648;2023-04-03T07:54:40;7.00;;;4.10;;
32633;SDS011;19043;51.012;5.648;2023-04-03T07:57:05;8.95;;;4.78;;
32633;SDS011;19043;51.012;5.648;2023-04-03T07:59:30;15.98;;;4.50;;
32633;SDS011;19043;51.012;5.648;2023-04-03T08:01:55;7.28;;;4.35;;
32633;SDS011;19043;51.012;5.648;2023-04-03T08:04:21;9.23;;;4.65;;
32633;SDS011;19043;51.012;5.648;2023-04-03T08:06:46;10.75;;;4.10;;
32633;SDS011;19043;51.012;5.648;2023-04-03T08:09:12;7.03;;;3.47;;
32633;SDS011;19043;51.012;5.648;2023-04-03T08:11:38;9.10;;;3.63;;
32633;SDS011;19043;51.012;5.648;2023-04-03T08:14:03;6.60;;;3.58;;
32633;SDS011;19043;51.012;5.648;2023-04-03T08:16:29;8.70;;;4.20;;
32633;SDS011;19043;51.012;5.648;2023-04-03T08:18:54;9.68;;;4.15;;
32633;SDS011;19043;51.012;5.648;2023-04-03T08:21:20;8.05;;;4.03;;
32633;SDS011;19043;51.012;5.648;2023-04-03T08:23:47;6.68;;;3.65;;
32633;SDS011;19043;51.012;5.648;2023-04-03T08:26:13;9.02;;;3.85;;
32633;SDS011;19043;51.012;5.648;2023-04-03T08:28:39;6.78;;;3.85;;
32633;SDS011;19043;51.012;5.648;2023-04-03T08:31:06;7.97;;;3.35;;
32633;SDS011;19043;51.012;5.648;2023-04-03T08:33:32;5.93;;;3.50;;
32633;SDS011;19043;51.012;5.648;2023-04-03T08:35:58;6.70;;;3.33;;
32633;SDS011;19043;51.012;5.648;2023-04-03T08:38:23;3.95;;;2.78;;
32633;SDS011;19043;51.012;5.648;2023-04-03T08:40:59;7.28;;;3.17;;
32633;SDS011;19043;51.012;5.648;2023-04-03T08:43:30;6.30;;;3.35;;
32633;SDS011;19043;51.012;5.648;2023-04-03T08:45:57;6.65;;;3.58;;
32633;SDS011;19043;51.012;5.648;2023-04-03T08:48:29;10.15;;;3.13;;
32633;SDS011;19043;51.012;5.648;2023-04-03T08:51:00;6.28;;;3.17;;
32633;SDS011;19043;51.012;5.648;2023-04-03T08:53:28;11.60;;;3.08;;
32633;SDS011;19043;51.012;5.648;2023-04-03T08:55:57;9.15;;;3.53;;
32633;SDS011;19043;51.012;5.648;2023-04-03T08:58:24;7.53;;;3.00;;
32633;SDS011;19043;51.012;5.648;2023-04-03T09:00:55;5.78;;;3.05;;
32633;SDS011;19043;51.012;5.648;2023-04-03T09:03:22;6.53;;;3.13;;
32633;SDS011;19043;51.012;5.648;2023-04-03T09:05:53;6.88;;;3.53;;
32633;SDS011;19043;51.012;5.648;2023-04-03T09:08:30;8.27;;;3.15;;
32633;SDS011;19043;51.012;5.648;2023-04-03T09:11:03;10.02;;;3.22;;
32633;SDS011;19043;51.012;5.648;2023-04-03T09:13:36;5.40;;;2.67;;
32633;SDS011;19043;51.012;5.648;2023-04-03T09:16:10;6.70;;;3.10;;
32633;SDS011;19043;51.012;5.648;2023-04-03T09:18:39;7.78;;;2.67;;
32633;SDS011;19043;51.012;5.648;2023-04-03T09:21:26;6.22;;;2.60;;
32633;SDS011;19043;51.012;5.648;2023-04-03T09:23:53;5.10;;;1.90;;
32633;SDS011;19043;51.012;5.648;2023-04-03T09:26:34;6.63;;;2.65;;
32633;SDS011;19043;51.012;5.648;2023-04-03T09:29:02;6.10;;;2.13;;
32633;SDS011;19043;51.012;5.648;2023-04-03T09:31:31;5.20;;;1.98;;
32633;SDS011;19043;51.012;5.648;2023-04-03T09:34:01;4.88;;;1.50;;
32633;SDS011;19043;51.012;5.648;2023-04-03T09:36:47;7.05;;;1.80;;
32633;SDS011;19043;51.012;5.648;2023-04-03T09:39:23;4.25;;;1.77;;
32633;SDS011;19043;51.012;5.648;2023-04-03T09:44:21;5.10;;;1.52;;
32633;SDS011;19043;51.012;5.648;2023-04-03T09:46:47;2.90;;;1.55;;
32633;SDS011;19043;51.012;5.648;2023-04-03T09:49:12;4.72;;;1.75;;
32633;SDS011;19043;51.012;5.648;2023-04-03T09:51:37;4.78;;;1.88;;
32633;SDS011;19043;51.012;5.648;2023-04-03T09:56:50;6.65;;;1.73;;
32633;SDS011;19043;51.012;5.648;2023-04-03T09:59:15;3.70;;;1.10;;
32633;SDS011;19043;51.012;5.648;2023-04-03T10:01:42;3.42;;;1.45;;
32633;SDS011;19043;51.012;5.648;2023-04-03T10:04:16;2.50;;;0.80;;
32633;SDS011;19043;51.012;5.648;2023-04-03T10:06:43;5.88;;;0.90;;
32633;SDS011;19043;51.012;5.648;2023-04-03T10:09:24;3.83;;;1.00;;
32633;SDS011;19043;51.012;5.648;2023-04-03T10:14:26;2.97;;;1.00;;
32633;SDS011;19043;51.012;5.648;2023-04-03T10:19:38;3.38;;;1.00;;
32633;SDS011;19043;51.012;5.648;2023-04-03T10:27:35;2.33;;;0.93;;
32633;SDS011;19043;51.012;5.648;2023-04-03T10:40:38;1.42;;;0.50;;
32633;SDS011;19043;51.012;5.648;2023-04-03T10:43:16;1.98;;;0.80;;
32633;SDS011;19043;51.012;5.648;2023-04-03T10:51:00;2.08;;;0.90;;
32633;SDS011;19043;51.012;5.648;2023-04-03T10:58:52;3.70;;;1.20;;
32633;SDS011;19043;51.012;5.648;2023-04-03T11:01:23;2.78;;;1.10;;
32633;SDS011;19043;51.012;5.648;2023-04-03T11:03:54;1.92;;;0.93;;
32633;SDS011;19043;51.012;5.648;2023-04-03T11:06:22;3.60;;;1.42;;
32633;SDS011;19043;51.012;5.648;2023-04-03T11:08:54;2.63;;;1.20;;
32633;SDS011;19043;51.012;5.648;2023-04-03T11:11:25;2.22;;;1.02;;
32633;SDS011;19043;51.012;5.648;2023-04-03T11:16:40;3.03;;;1.27;;
32633;SDS011;19043;51.012;5.648;2023-04-03T11:21:42;2.10;;;1.10;;
32633;SDS011;19043;51.012;5.648;2023-04-03T11:24:27;8.05;;;1.42;;
32633;SDS011;19043;51.012;5.648;2023-04-03T11:26:55;3.80;;;1.00;;
32633;SDS011;19043;51.012;5.648;2023-04-03T11:29:22;4.15;;;1.05;;
32633;SDS011;19043;51.012;5.648;2023-04-03T11:34:34;2.97;;;1.10;;
32633;SDS011;19043;51.012;5.648;2023-04-03T11:37:04;3.63;;;1.60;;
32633;SDS011;19043;51.012;5.648;2023-04-03T11:39:31;3.03;;;0.93;;
32633;SDS011;19043;51.012;5.648;2023-04-03T11:42:15;3.10;;;1.25;;
32633;SDS011;19043;51.012;5.648;2023-04-03T11:44:40;1.88;;;1.05;;
32633;SDS011;19043;51.012;5.648;2023-04-03T11:47:07;4.40;;;1.50;;
32633;SDS011;19043;51.012;5.648;2023-04-03T12:02:55;3.10;;;1.40;;
32633;SDS011;19043;51.012;5.648;2023-04-03T12:05:25;5.78;;;1.85;;
32633;SDS011;19043;51.012;5.648;2023-04-03T12:10:35;4.15;;;1.65;;
32633;SDS011;19043;51.012;5.648;2023-04-03T12:13:00;5.93;;;1.67;;
32633;SDS011;19043;51.012;5.648;2023-04-03T12:18:25;3.00;;;1.92;;
32633;SDS011;19043;51.012;5.648;2023-04-03T12:20:51;5.68;;;1.80;;
32633;SDS011;19043;51.012;5.648;2023-04-03T12:23:24;5.28;;;1.65;;
32633;SDS011;19043;51.012;5.648;2023-04-03T12:25:50;3.33;;;1.77;;
32633;SDS011;19043;51.012;5.648;2023-04-03T12:28:16;3.78;;;1.80;;
32633;SDS011;19043;51.012;5.648;2023-04-03T12:30:41;3.67;;;1.50;;
32633;SDS011;19043;51.012;5.648;2023-04-03T12:33:23;2.85;;;1.65;;
32633;SDS011;19043;51.012;5.648;2023-04-03T12:48:39;3.58;;;2.00;;
32633;SDS011;19043;51.012;5.648;2023-04-03T12:51:14;4.15;;;2.13;;
32633;SDS011;19043;51.012;5.648;2023-04-03T12:53:41;3.72;;;1.60;;
32633;SDS011;19043;51.012;5.648;2023-04-03T12:56:24;4.53;;;2.00;;
32633;SDS011;19043;51.012;5.648;2023-04-03T12:58:50;5.57;;;1.98;;
32633;SDS011;19043;51.012;5.648;2023-04-03T13:01:17;3.67;;;1.75;;
32633;SDS011;19043;51.012;5.648;2023-04-03T13:03:44;4.53;;;1.70;;
32633;SDS011;19043;51.012;5.648;2023-04-03T13:06:10;2.88;;;1.35;;
32633;SDS011;19043;51.012;5.648;2023-04-03T13:08:37;5.25;;;1.73;;
32633;SDS011;19043;51.012;5.648;2023-04-03T13:11:06;3.90;;;2.00;;
32633;SDS011;19043;51.012;5.648;2023-04-03T13:13:33;4.60;;;2.00;;
32633;SDS011;19043;51.012;5.648;2023-04-03T13:15:58;7.57;;;1.97;;
32633;SDS011;19043;51.012;5.648;2023-04-03T13:20:48;4.77;;;1.80;;
32633;SDS011;19043;51.012;5.648;2023-04-03T13:23:14;3.80;;;1.88;;
32633;SDS011;19043;51.012;5.648;2023-04-03T13:25:43;5.00;;;1.88;;
32633;SDS011;19043;51.012;5.648;2023-04-03T13:28:10;5.20;;;1.88;;
32633;SDS011;19043;51.012;5.648;2023-04-03T13:30:37;4.13;;;1.67;;
32633;SDS011;19043;51.012;5.648;2023-04-03T13:33:04;3.30;;;1.65;;
32633;SDS011;19043;51.012;5.648;2023-04-03T13:35:35;6.53;;;2.13;;
32633;SDS011;19043;51.012;5.648;2023-04-03T13:38:03;2.85;;;1.63;;
32633;SDS011;19043;51.012;5.648;2023-04-03T13:40:28;4.47;;;1.70;;
32633;SDS011;19043;51.012;5.648;2023-04-03T13:43:28;4.35;;;2.00;;
32633;SDS011;19043;51.012;5.648;2023-04-03T13:45:59;4.63;;;2.03;;
32633;SDS011;19043;51.012;5.648;2023-04-03T13:48:25;3.30;;;1.85;;
32633;SDS011;19043;51.012;5.648;2023-04-03T13:51:00;3.72;;;1.98;;
32633;SDS011;19043;51.012;5.648;2023-04-03T13:53:26;3.10;;;1.55;;
32633;SDS011;19043;51.012;5.648;2023-04-03T13:56:08;3.80;;;1.75;;
32633;SDS011;19043;51.012;5.648;2023-04-03T13:58:34;4.70;;;1.95;;
32633;SDS011;19043;51.012;5.648;2023-04-03T14:03:33;4.78;;;2.13;;
32633;SDS011;19043;51.012;5.648;2023-04-03T14:06:05;3.67;;;2.20;;
32633;SDS011;19043;51.012;5.648;2023-04-03T14:08:31;3.60;;;2.13;;
32633;SDS011;19043;51.012;5.648;2023-04-03T14:10:56;5.07;;;1.60;;
32633;SDS011;19043;51.012;5.648;2023-04-03T14:13:22;4.80;;;1.60;;
32633;SDS011;19043;51.012;5.648;2023-04-03T14:15:47;3.95;;;1.92;;
32633;SDS011;19043;51.012;5.648;2023-04-03T14:18:14;4.03;;;1.85;;
32633;SDS011;19043;51.012;5.648;2023-04-03T14:20:40;4.45;;;1.98;;
32633;SDS011;19043;51.012;5.648;2023-04-03T14:23:05;4.30;;;1.63;;
32633;SDS011;19043;51.012;5.648;2023-04-03T14:25:31;6.35;;;2.58;;
32633;SDS011;19043;51.012;5.648;2023-04-03T14:27:56;4.63;;;1.98;;
32633;SDS011;19043;51.012;5.648;2023-04-03T14:30:27;4.38;;;1.60;;
32633;SDS011;19043;51.012;5.648;2023-04-03T14:32:53;4.55;;;1.70;;
32633;SDS011;19043;51.012;5.648;2023-04-03T14:35:18;4.85;;;1.88;;
32633;SDS011;19043;51.012;5.648;2023-04-03T14:37:44;3.47;;;1.73;;
32633;SDS011;19043;51.012;5.648;2023-04-03T14:40:12;3.80;;;1.67;;
32633;SDS011;19043;51.012;5.648;2023-04-03T14:42:37;3.95;;;1.55;;
32633;SDS011;19043;51.012;5.648;2023-04-03T14:45:04;3.20;;;1.50;;
32633;SDS011;19043;51.012;5.648;2023-04-03T14:47:30;3.67;;;1.35;;
32633;SDS011;19043;51.012;5.648;2023-04-03T14:49:56;4.97;;;1.45;;
32633;SDS011;19043;51.012;5.648;2023-04-03T14:52:26;2.72;;;1.10;;
32633;SDS011;19043;51.012;5.648;2023-04-03T14:54:52;3.20;;;1.40;;
32633;SDS011;19043;51.012;5.648;2023-04-03T14:57:17;2.85;;;1.35;;
32633;SDS011;19043;51.012;5.648;2023-04-03T14:59:43;2.78;;;1.65;;
32633;SDS011;19043;51.012;5.648;2023-04-03T15:04:53;3.67;;;1.40;;
32633;SDS011;19043;51.012;5.648;2023-04-03T15:07:18;5.18;;;1.65;;
32633;SDS011;19043;51.012;5.648;2023-04-03T15:09:44;4.47;;;1.70;;
32633;SDS011;19043;51.012;5.648;2023-04-03T15:12:10;3.13;;;1.35;;
32633;SDS011;19043;51.012;5.648;2023-04-03T15:14:35;4.20;;;1.92;;
32633;SDS011;19043;51.012;5.648;2023-04-03T15:17:00;3.40;;;1.30;;
32633;SDS011;19043;51.012;5.648;2023-04-03T15:19:26;3.80;;;1.95;;
32633;SDS011;19043;51.012;5.648;2023-04-03T15:21:51;2.70;;;1.23;;
32633;SDS011;19043;51.012;5.648;2023-04-03T15:24:16;8.65;;;1.65;;
32633;SDS011;19043;51.012;5.648;2023-04-03T15:26:41;3.28;;;1.48;;
32633;SDS011;19043;51.012;5.648;2023-04-03T15:29:07;2.45;;;1.10;;
32633;SDS011;19043;51.012;5.648;2023-04-03T15:31:32;3.25;;;1.58;;
32633;SDS011;19043;51.012;5.648;2023-04-03T15:33:57;4.63;;;1.90;;
32633;SDS011;19043;51.012;5.648;2023-04-03T15:36:23;3.67;;;1.45;;
32633;SDS011;19043;51.012;5.648;2023-04-03T15:38:48;3.45;;;1.55;;
32633;SDS011;19043;51.012;5.648;2023-04-03T15:41:13;6.40;;;1.75;;
32633;SDS011;19043;51.012;5.648;2023-04-03T15:43:39;3.47;;;1.67;;
32633;SDS011;19043;51.012;5.648;2023-04-03T15:46:04;6.95;;;1.92;;
32633;SDS011;19043;51.012;5.648;2023-04-03T15:48:30;3.45;;;1.60;;
32633;SDS011;19043;51.012;5.648;2023-04-03T15:50:55;3.65;;;1.30;;
32633;SDS011;19043;51.012;5.648;2023-04-03T15:53:21;3.20;;;1.58;;
32633;SDS011;19043;51.012;5.648;2023-04-03T15:55:46;4.22;;;1.58;;
32633;SDS011;19043;51.012;5.648;2023-04-03T15:58:11;2.97;;;1.38;;
32633;SDS011;19043;51.012;5.648;2023-04-03T16:00:37;2.35;;;1.20;;
32633;SDS011;19043;51.012;5.648;2023-04-03T16:03:04;7.82;;;1.40;;
32633;SDS011;19043;51.012;5.648;2023-04-03T16:05:30;4.22;;;1.75;;
32633;SDS011;19043;51.012;5.648;2023-04-03T16:07:56;3.40;;;1.52;;